sensor_id;sensor_type;location;lat;lon;timestamp;P1;durP1;ratioP1;P2;durP2;ratioP2
20468;SDS011;10393;52.460;13.322;2022-12-07T00:01:15;4.23;;;2.00;;
20468;SDS011;10393;52.460;13.322;2022-12-07T00:02:57;5.97;;;2.07;;
20468;SDS011;10393;52.460;13.322;2022-12-07T00:04:38;3.87;;;1.57;;
20468;SDS011;10393;52.460;13.322;2022-12-07T00:06:19;6.17;;;2.23;;
20468;SDS011;10393;52.460;13.322;2022-12-07T00:08:00;3.40;;;1.50;;
20468;SDS011;10393;52.460;13.322;2022-12-07T00:09:42;11.40;;;2.40;;
20468;SDS011;10393;52.460;13.322;2022-12-07T00:11:23;4.73;;;1.90;;
20468;SDS011;10393;52.460;13.322;2022-12-07T00:13:05;3.83;;;1.57;;
20468;SDS011;10393;52.460;13.322;2022-12-07T00:14:46;3.57;;;1.93;;
20468;SDS011;10393;52.460;13.322;2022-12-07T00:16:28;4.13;;;2.40;;
20468;SDS011;10393;52.460;13.322;2022-12-07T00:18:10;2.73;;;1.83;;
20468;SDS011;10393;52.460;13.322;2022-12-07T00:19:51;10.53;;;2.73;;
20468;SDS011;10393;52.460;13.322;2022-12-07T00:21:33;3.43;;;1.87;;
20468;SDS011;10393;52.460;13.322;2022-12-07T00:23:15;3.17;;;1.53;;
20468;SDS011;10393;52.460;13.322;2022-12-07T00:24:56;5.00;;;1.97;;
20468;SDS011;10393;52.460;13.322;2022-12-07T00:26:38;3.00;;;1.87;;
20468;SDS011;10393;52.460;13.322;2022-12-07T00:28:20;2.47;;;1.63;;
20468;SDS011;10393;52.460;13.322;2022-12-07T00:30:01;3.50;;;1.77;;
20468;SDS011;10393;52.460;13.322;2022-12-07T00:31:42;3.10;;;1.80;;
20468;SDS011;10393;52.460;13.322;2022-12-07T00:33:23;3.47;;;1.80;;
20468;SDS011;10393;52.460;13.322;2022-12-07T00:35:04;5.07;;;1.60;;
20468;SDS011;10393;52.460;13.322;2022-12-07T00:36:46;3.30;;;1.83;;
20468;SDS011;10393;52.460;13.322;2022-12-07T00:38:28;5.07;;;2.50;;
20468;SDS011;10393;52.460;13.322;2022-12-07T00:40:09;4.07;;;1.93;;
20468;SDS011;10393;52.460;13.322;2022-12-07T00:41:51;4.80;;;1.80;;
20468;SDS011;10393;52.460;13.322;2022-12-07T00:43:32;1.90;;;1.37;;
20468;SDS011;10393;52.460;13.322;2022-12-07T00:45:13;2.33;;;1.43;;
20468;SDS011;10393;52.460;13.322;2022-12-07T00:46:54;3.70;;;2.00;;
20468;SDS011;10393;52.460;13.322;2022-12-07T00:48:36;1.90;;;1.10;;
20468;SDS011;10393;52.460;13.322;2022-12-07T00:50:17;2.80;;;1.53;;
20468;SDS011;10393;52.460;13.322;2022-12-07T00:51:58;1.47;;;1.27;;
20468;SDS011;10393;52.460;13.322;2022-12-07T00:53:40;2.10;;;1.40;;
20468;SDS011;10393;52.460;13.322;2022-12-07T00:55:21;2.00;;;1.40;;
20468;SDS011;10393;52.460;13.322;2022-12-07T00:57:02;5.17;;;1.30;;
20468;SDS011;10393;52.460;13.322;2022-12-07T00:58:44;2.33;;;1.37;;
20468;SDS011;10393;52.460;13.322;2022-12-07T01:00:25;5.73;;;1.57;;
20468;SDS011;10393;52.460;13.322;2022-12-07T01:02:06;3.07;;;1.80;;
20468;SDS011;10393;52.460;13.322;2022-12-07T01:03:47;2.37;;;1.53;;
20468;SDS011;10393;52.460;13.322;2022-12-07T01:05:29;3.13;;;1.43;;
20468;SDS011;10393;52.460;13.322;2022-12-07T01:07:10;3.00;;;1.57;;
20468;SDS011;10393;52.460;13.322;2022-12-07T01:08:51;1.97;;;1.30;;
20468;SDS011;10393;52.460;13.322;2022-12-07T01:10:33;2.20;;;1.20;;
20468;SDS011;10393;52.460;13.322;2022-12-07T01:12:14;1.47;;;1.37;;
20468;SDS011;10393;52.460;13.322;2022-12-07T01:13:56;2.50;;;1.17;;
20468;SDS011;10393;52.460;13.322;2022-12-07T01:15:41;2.30;;;1.23;;
20468;SDS011;10393;52.460;13.322;2022-12-07T01:17:22;1.80;;;1.20;;
20468;SDS011;10393;52.460;13.322;2022-12-07T01:19:03;1.30;;;1.00;;
20468;SDS011;10393;52.460;13.322;2022-12-07T01:20:44;2.97;;;1.20;;
20468;SDS011;10393;52.460;13.322;2022-12-07T01:22:26;2.33;;;0.97;;
20468;SDS011;10393;52.460;13.322;2022-12-07T01:24:08;1.93;;;1.23;;
20468;SDS011;10393;52.460;13.322;2022-12-07T01:25:54;2.73;;;1.10;;
20468;SDS011;10393;52.460;13.322;2022-12-07T01:27:35;1.83;;;1.00;;
20468;SDS011;10393;52.460;13.322;2022-12-07T01:29:17;5.70;;;1.10;;
20468;SDS011;10393;52.460;13.322;2022-12-07T01:31:02;1.80;;;0.97;;
20468;SDS011;10393;52.460;13.322;2022-12-07T01:32:43;1.43;;;1.03;;
20468;SDS011;10393;52.460;13.322;2022-12-07T01:34:25;1.90;;;1.20;;
20468;SDS011;10393;52.460;13.322;2022-12-07T01:36:13;5.50;;;1.07;;
20468;SDS011;10393;52.460;13.322;2022-12-07T01:37:55;1.87;;;1.53;;
20468;SDS011;10393;52.460;13.322;2022-12-07T01:39:36;3.57;;;1.10;;
20468;SDS011;10393;52.460;13.322;2022-12-07T01:41:17;2.13;;;1.07;;
20468;SDS011;10393;52.460;13.322;2022-12-07T01:42:59;1.77;;;1.17;;
20468;SDS011;10393;52.460;13.322;2022-12-07T01:46:40;1.93;;;1.10;;
20468;SDS011;10393;52.460;13.322;2022-12-07T01:48:24;2.10;;;1.03;;
20468;SDS011;10393;52.460;13.322;2022-12-07T01:50:07;5.57;;;0.90;;
20468;SDS011;10393;52.460;13.322;2022-12-07T01:51:48;2.53;;;1.57;;
20468;SDS011;10393;52.460;13.322;2022-12-07T01:53:30;2.80;;;0.70;;
20468;SDS011;10393;52.460;13.322;2022-12-07T01:55:12;2.10;;;1.00;;
20468;SDS011;10393;52.460;13.322;2022-12-07T01:56:54;1.27;;;1.10;;
20468;SDS011;10393;52.460;13.322;2022-12-07T01:58:37;1.70;;;1.00;;
20468;SDS011;10393;52.460;13.322;2022-12-07T02:00:18;1.40;;;0.77;;
20468;SDS011;10393;52.460;13.322;2022-12-07T02:02:00;7.73;;;1.40;;
20468;SDS011;10393;52.460;13.322;2022-12-07T02:03:43;1.60;;;0.90;;
20468;SDS011;10393;52.460;13.322;2022-12-07T02:05:25;2.43;;;1.43;;
20468;SDS011;10393;52.460;13.322;2022-12-07T02:07:07;3.07;;;1.10;;
20468;SDS011;10393;52.460;13.322;2022-12-07T02:08:48;2.50;;;1.10;;
20468;SDS011;10393;52.460;13.322;2022-12-07T02:10:31;1.10;;;0.60;;
20468;SDS011;10393;52.460;13.322;2022-12-07T02:12:12;1.90;;;0.80;;
20468;SDS011;10393;52.460;13.322;2022-12-07T02:13:53;1.43;;;1.10;;
20468;SDS011;10393;52.460;13.322;2022-12-07T02:15:41;1.87;;;1.03;;
20468;SDS011;10393;52.460;13.322;2022-12-07T02:17:31;3.83;;;0.63;;
20468;SDS011;10393;52.460;13.322;2022-12-07T02:21:11;1.83;;;1.23;;
20468;SDS011;10393;52.460;13.322;2022-12-07T02:26:46;1.87;;;1.10;;
20468;SDS011;10393;52.460;13.322;2022-12-07T02:28:31;0.90;;;0.53;;
20468;SDS011;10393;52.460;13.322;2022-12-07T02:30:17;3.20;;;1.03;;
20468;SDS011;10393;52.460;13.322;2022-12-07T02:32:05;1.50;;;1.07;;
20468;SDS011;10393;52.460;13.322;2022-12-07T02:34:01;1.50;;;1.17;;
20468;SDS011;10393;52.460;13.322;2022-12-07T02:35:59;1.47;;;0.80;;
20468;SDS011;10393;52.460;13.322;2022-12-07T02:37:47;1.90;;;0.90;;
20468;SDS011;10393;52.460;13.322;2022-12-07T02:39:49;1.67;;;1.00;;
20468;SDS011;10393;52.460;13.322;2022-12-07T02:41:34;1.00;;;0.80;;
20468;SDS011;10393;52.460;13.322;2022-12-07T02:43:18;2.93;;;0.97;;
20468;SDS011;10393;52.460;13.322;2022-12-07T02:45:00;3.37;;;1.47;;
20468;SDS011;10393;52.460;13.322;2022-12-07T02:46:43;3.07;;;1.30;;
20468;SDS011;10393;52.460;13.322;2022-12-07T02:48:25;1.10;;;0.97;;
20468;SDS011;10393;52.460;13.322;2022-12-07T02:50:07;0.90;;;0.80;;
20468;SDS011;10393;52.460;13.322;2022-12-07T02:51:48;0.87;;;0.80;;
20468;SDS011;10393;52.460;13.322;2022-12-07T02:55:11;1.73;;;1.43;;
20468;SDS011;10393;52.460;13.322;2022-12-07T03:00:30;1.73;;;1.00;;
20468;SDS011;10393;52.460;13.322;2022-12-07T03:06:07;3.00;;;1.50;;
20468;SDS011;10393;52.460;13.322;2022-12-07T03:08:01;3.43;;;0.60;;
20468;SDS011;10393;52.460;13.322;2022-12-07T03:11:32;1.13;;;0.87;;
20468;SDS011;10393;52.460;13.322;2022-12-07T03:13:34;1.03;;;0.60;;
20468;SDS011;10393;52.460;13.322;2022-12-07T03:15:21;2.30;;;1.03;;
20468;SDS011;10393;52.460;13.322;2022-12-07T03:17:05;1.30;;;0.80;;
20468;SDS011;10393;52.460;13.322;2022-12-07T03:18:50;1.50;;;1.00;;
20468;SDS011;10393;52.460;13.322;2022-12-07T03:20:32;7.30;;;1.30;;
20468;SDS011;10393;52.460;13.322;2022-12-07T03:22:14;1.63;;;1.13;;
20468;SDS011;10393;52.460;13.322;2022-12-07T03:23:56;4.30;;;1.67;;
20468;SDS011;10393;52.460;13.322;2022-12-07T03:25:39;2.67;;;1.50;;
20468;SDS011;10393;52.460;13.322;2022-12-07T03:27:25;4.73;;;1.10;;
20468;SDS011;10393;52.460;13.322;2022-12-07T03:29:09;5.83;;;1.40;;
20468;SDS011;10393;52.460;13.322;2022-12-07T03:30:53;1.83;;;0.93;;
20468;SDS011;10393;52.460;13.322;2022-12-07T03:32:38;1.87;;;1.00;;
20468;SDS011;10393;52.460;13.322;2022-12-07T03:36:08;3.33;;;1.73;;
20468;SDS011;10393;52.460;13.322;2022-12-07T03:37:57;4.60;;;1.37;;
20468;SDS011;10393;52.460;13.322;2022-12-07T03:39:41;2.13;;;1.13;;
20468;SDS011;10393;52.460;13.322;2022-12-07T03:41:26;7.63;;;0.80;;
20468;SDS011;10393;52.460;13.322;2022-12-07T03:43:09;2.20;;;1.20;;
20468;SDS011;10393;52.460;13.322;2022-12-07T03:44:50;1.07;;;0.80;;
20468;SDS011;10393;52.460;13.322;2022-12-07T03:46:45;4.00;;;1.17;;
20468;SDS011;10393;52.460;13.322;2022-12-07T03:48:41;2.13;;;1.37;;
20468;SDS011;10393;52.460;13.322;2022-12-07T03:52:39;1.77;;;1.07;;
20468;SDS011;10393;52.460;13.322;2022-12-07T03:54:24;3.53;;;1.03;;
20468;SDS011;10393;52.460;13.322;2022-12-07T03:56:06;4.13;;;1.43;;
20468;SDS011;10393;52.460;13.322;2022-12-07T03:57:48;2.27;;;1.50;;
20468;SDS011;10393;52.460;13.322;2022-12-07T03:59:31;2.97;;;1.13;;
20468;SDS011;10393;52.460;13.322;2022-12-07T04:01:12;2.23;;;1.07;;
20468;SDS011;10393;52.460;13.322;2022-12-07T04:02:54;1.50;;;1.00;;
20468;SDS011;10393;52.460;13.322;2022-12-07T04:04:35;3.10;;;1.20;;
20468;SDS011;10393;52.460;13.322;2022-12-07T04:06:16;2.43;;;0.90;;
20468;SDS011;10393;52.460;13.322;2022-12-07T04:07:58;1.63;;;1.00;;
20468;SDS011;10393;52.460;13.322;2022-12-07T04:09:39;3.40;;;1.33;;
20468;SDS011;10393;52.460;13.322;2022-12-07T04:11:20;4.80;;;1.50;;
20468;SDS011;10393;52.460;13.322;2022-12-07T04:13:01;3.00;;;1.20;;
20468;SDS011;10393;52.460;13.322;2022-12-07T04:14:43;3.80;;;2.07;;
20468;SDS011;10393;52.460;13.322;2022-12-07T04:16:24;5.53;;;2.70;;
20468;SDS011;10393;52.460;13.322;2022-12-07T04:18:05;4.47;;;2.17;;
20468;SDS011;10393;52.460;13.322;2022-12-07T04:19:46;4.47;;;2.00;;
20468;SDS011;10393;52.460;13.322;2022-12-07T04:21:27;5.23;;;1.90;;
20468;SDS011;10393;52.460;13.322;2022-12-07T04:23:09;2.67;;;1.27;;
20468;SDS011;10393;52.460;13.322;2022-12-07T04:24:50;4.50;;;2.13;;
20468;SDS011;10393;52.460;13.322;2022-12-07T04:26:31;4.10;;;1.90;;
20468;SDS011;10393;52.460;13.322;2022-12-07T04:28:12;4.23;;;1.47;;
20468;SDS011;10393;52.460;13.322;2022-12-07T04:29:53;4.70;;;2.47;;
20468;SDS011;10393;52.460;13.322;2022-12-07T04:31:35;5.63;;;2.43;;
20468;SDS011;10393;52.460;13.322;2022-12-07T04:33:17;3.53;;;1.83;;
20468;SDS011;10393;52.460;13.322;2022-12-07T04:34:58;7.43;;;1.87;;
20468;SDS011;10393;52.460;13.322;2022-12-07T04:36:39;3.83;;;2.50;;
20468;SDS011;10393;52.460;13.322;2022-12-07T04:38:21;3.80;;;1.80;;
20468;SDS011;10393;52.460;13.322;2022-12-07T04:40:02;6.47;;;2.30;;
20468;SDS011;10393;52.460;13.322;2022-12-07T04:41:43;5.83;;;2.27;;
20468;SDS011;10393;52.460;13.322;2022-12-07T04:43:24;5.63;;;2.63;;
20468;SDS011;10393;52.460;13.322;2022-12-07T04:45:06;14.90;;;3.03;;
20468;SDS011;10393;52.460;13.322;2022-12-07T04:46:48;8.53;;;3.23;;
20468;SDS011;10393;52.460;13.322;2022-12-07T04:48:29;11.93;;;3.97;;
20468;SDS011;10393;52.460;13.322;2022-12-07T04:50:10;4.17;;;1.90;;
20468;SDS011;10393;52.460;13.322;2022-12-07T04:51:52;5.53;;;2.97;;
20468;SDS011;10393;52.460;13.322;2022-12-07T04:53:33;4.20;;;2.00;;
20468;SDS011;10393;52.460;13.322;2022-12-07T04:55:14;5.67;;;2.30;;
20468;SDS011;10393;52.460;13.322;2022-12-07T04:56:55;2.90;;;2.47;;
20468;SDS011;10393;52.460;13.322;2022-12-07T04:58:37;3.83;;;2.20;;
20468;SDS011;10393;52.460;13.322;2022-12-07T05:00:18;7.00;;;2.33;;
20468;SDS011;10393;52.460;13.322;2022-12-07T05:01:59;6.47;;;3.30;;
20468;SDS011;10393;52.460;13.322;2022-12-07T05:03:40;9.07;;;3.00;;
20468;SDS011;10393;52.460;13.322;2022-12-07T05:05:22;4.73;;;1.87;;
20468;SDS011;10393;52.460;13.322;2022-12-07T05:07:04;6.73;;;2.93;;
20468;SDS011;10393;52.460;13.322;2022-12-07T05:08:45;7.97;;;4.03;;
20468;SDS011;10393;52.460;13.322;2022-12-07T05:10:26;9.00;;;3.80;;
20468;SDS011;10393;52.460;13.322;2022-12-07T05:12:08;4.13;;;2.77;;
20468;SDS011;10393;52.460;13.322;2022-12-07T05:13:49;8.73;;;3.20;;
20468;SDS011;10393;52.460;13.322;2022-12-07T05:15:30;6.83;;;3.33;;
20468;SDS011;10393;52.460;13.322;2022-12-07T05:17:11;6.87;;;3.37;;
20468;SDS011;10393;52.460;13.322;2022-12-07T05:18:53;9.20;;;4.03;;
20468;SDS011;10393;52.460;13.322;2022-12-07T05:20:34;9.67;;;3.70;;
20468;SDS011;10393;52.460;13.322;2022-12-07T05:22:15;7.97;;;3.10;;
20468;SDS011;10393;52.460;13.322;2022-12-07T05:23:56;6.23;;;2.23;;
20468;SDS011;10393;52.460;13.322;2022-12-07T05:25:37;8.43;;;3.53;;
20468;SDS011;10393;52.460;13.322;2022-12-07T05:27:19;5.90;;;3.97;;
20468;SDS011;10393;52.460;13.322;2022-12-07T05:29:00;8.37;;;3.40;;
20468;SDS011;10393;52.460;13.322;2022-12-07T05:30:41;7.07;;;3.70;;
20468;SDS011;10393;52.460;13.322;2022-12-07T05:32:22;9.90;;;5.07;;
20468;SDS011;10393;52.460;13.322;2022-12-07T05:34:03;12.07;;;4.87;;
20468;SDS011;10393;52.460;13.322;2022-12-07T05:35:45;7.90;;;3.77;;
20468;SDS011;10393;52.460;13.322;2022-12-07T05:37:26;7.63;;;3.50;;
20468;SDS011;10393;52.460;13.322;2022-12-07T05:39:07;8.07;;;3.63;;
20468;SDS011;10393;52.460;13.322;2022-12-07T05:40:48;8.20;;;3.77;;
20468;SDS011;10393;52.460;13.322;2022-12-07T05:42:29;8.17;;;3.47;;
20468;SDS011;10393;52.460;13.322;2022-12-07T05:44:11;15.20;;;4.20;;
20468;SDS011;10393;52.460;13.322;2022-12-07T05:45:52;5.10;;;3.40;;
20468;SDS011;10393;52.460;13.322;2022-12-07T05:47:33;7.10;;;3.73;;
20468;SDS011;10393;52.460;13.322;2022-12-07T05:49:14;8.17;;;4.43;;
20468;SDS011;10393;52.460;13.322;2022-12-07T05:50:55;8.37;;;3.77;;
20468;SDS011;10393;52.460;13.322;2022-12-07T05:52:37;7.50;;;3.33;;
20468;SDS011;10393;52.460;13.322;2022-12-07T05:54:18;13.73;;;5.20;;
20468;SDS011;10393;52.460;13.322;2022-12-07T05:55:59;11.83;;;3.93;;
20468;SDS011;10393;52.460;13.322;2022-12-07T05:57:40;11.73;;;4.50;;
20468;SDS011;10393;52.460;13.322;2022-12-07T05:59:41;12.23;;;5.37;;
20468;SDS011;10393;52.460;13.322;2022-12-07T06:01:23;9.67;;;4.03;;
20468;SDS011;10393;52.460;13.322;2022-12-07T06:03:04;6.87;;;3.57;;
20468;SDS011;10393;52.460;13.322;2022-12-07T06:04:45;5.47;;;3.03;;
20468;SDS011;10393;52.460;13.322;2022-12-07T06:06:27;13.00;;;4.17;;
20468;SDS011;10393;52.460;13.322;2022-12-07T06:08:08;14.87;;;4.83;;
20468;SDS011;10393;52.460;13.322;2022-12-07T06:09:49;9.80;;;4.03;;
20468;SDS011;10393;52.460;13.322;2022-12-07T06:11:30;8.93;;;4.53;;
20468;SDS011;10393;52.460;13.322;2022-12-07T06:13:30;7.80;;;4.13;;
20468;SDS011;10393;52.460;13.322;2022-12-07T06:15:12;14.80;;;5.03;;
20468;SDS011;10393;52.460;13.322;2022-12-07T06:16:53;11.23;;;4.07;;
20468;SDS011;10393;52.460;13.322;2022-12-07T06:18:34;8.97;;;4.77;;
20468;SDS011;10393;52.460;13.322;2022-12-07T06:20:15;15.30;;;4.40;;
20468;SDS011;10393;52.460;13.322;2022-12-07T06:21:57;10.43;;;4.50;;
20468;SDS011;10393;52.460;13.322;2022-12-07T06:23:38;12.60;;;5.27;;
20468;SDS011;10393;52.460;13.322;2022-12-07T06:25:19;15.00;;;5.47;;
20468;SDS011;10393;52.460;13.322;2022-12-07T06:27:00;11.43;;;4.60;;
20468;SDS011;10393;52.460;13.322;2022-12-07T06:28:42;21.97;;;5.13;;
20468;SDS011;10393;52.460;13.322;2022-12-07T06:30:23;9.10;;;4.27;;
20468;SDS011;10393;52.460;13.322;2022-12-07T06:32:04;8.37;;;4.27;;
20468;SDS011;10393;52.460;13.322;2022-12-07T06:33:46;11.30;;;3.77;;
20468;SDS011;10393;52.460;13.322;2022-12-07T06:35:27;7.03;;;3.77;;
20468;SDS011;10393;52.460;13.322;2022-12-07T06:37:08;9.70;;;4.87;;
20468;SDS011;10393;52.460;13.322;2022-12-07T06:38:49;10.57;;;4.73;;
20468;SDS011;10393;52.460;13.322;2022-12-07T06:40:30;14.57;;;6.37;;
20468;SDS011;10393;52.460;13.322;2022-12-07T06:42:12;8.20;;;3.83;;
20468;SDS011;10393;52.460;13.322;2022-12-07T06:43:53;6.57;;;3.43;;
20468;SDS011;10393;52.460;13.322;2022-12-07T06:45:34;9.50;;;5.67;;
20468;SDS011;10393;52.460;13.322;2022-12-07T06:47:15;14.60;;;4.60;;
20468;SDS011;10393;52.460;13.322;2022-12-07T06:48:56;13.07;;;5.50;;
20468;SDS011;10393;52.460;13.322;2022-12-07T06:50:38;9.57;;;4.53;;
20468;SDS011;10393;52.460;13.322;2022-12-07T06:52:19;6.53;;;4.30;;
20468;SDS011;10393;52.460;13.322;2022-12-07T06:54:00;9.73;;;3.93;;
20468;SDS011;10393;52.460;13.322;2022-12-07T06:55:41;13.83;;;4.73;;
20468;SDS011;10393;52.460;13.322;2022-12-07T06:57:22;16.77;;;5.30;;
20468;SDS011;10393;52.460;13.322;2022-12-07T06:59:04;11.57;;;3.57;;
20468;SDS011;10393;52.460;13.322;2022-12-07T07:00:47;10.90;;;4.53;;
20468;SDS011;10393;52.460;13.322;2022-12-07T07:02:28;14.17;;;4.73;;
20468;SDS011;10393;52.460;13.322;2022-12-07T07:04:09;8.73;;;4.10;;
20468;SDS011;10393;52.460;13.322;2022-12-07T07:05:51;9.67;;;4.53;;
20468;SDS011;10393;52.460;13.322;2022-12-07T07:07:32;15.03;;;5.03;;
20468;SDS011;10393;52.460;13.322;2022-12-07T07:09:13;11.90;;;4.13;;
20468;SDS011;10393;52.460;13.322;2022-12-07T07:10:54;14.50;;;5.30;;
20468;SDS011;10393;52.460;13.322;2022-12-07T07:12:35;8.70;;;4.63;;
20468;SDS011;10393;52.460;13.322;2022-12-07T07:14:17;8.07;;;3.70;;
20468;SDS011;10393;52.460;13.322;2022-12-07T07:15:59;7.87;;;4.03;;
20468;SDS011;10393;52.460;13.322;2022-12-07T07:17:40;12.93;;;4.90;;
20468;SDS011;10393;52.460;13.322;2022-12-07T07:19:21;7.73;;;3.47;;
20468;SDS011;10393;52.460;13.322;2022-12-07T07:21:03;7.60;;;3.50;;
20468;SDS011;10393;52.460;13.322;2022-12-07T07:22:44;10.57;;;4.40;;
20468;SDS011;10393;52.460;13.322;2022-12-07T07:24:25;10.20;;;4.03;;
20468;SDS011;10393;52.460;13.322;2022-12-07T07:26:06;8.70;;;3.93;;
20468;SDS011;10393;52.460;13.322;2022-12-07T07:27:48;6.77;;;4.00;;
20468;SDS011;10393;52.460;13.322;2022-12-07T07:29:29;7.20;;;2.83;;
20468;SDS011;10393;52.460;13.322;2022-12-07T07:31:10;9.10;;;4.07;;
20468;SDS011;10393;52.460;13.322;2022-12-07T07:32:51;8.73;;;3.50;;
20468;SDS011;10393;52.460;13.322;2022-12-07T07:34:36;11.90;;;5.10;;
20468;SDS011;10393;52.460;13.322;2022-12-07T07:36:17;9.53;;;3.63;;
20468;SDS011;10393;52.460;13.322;2022-12-07T07:37:59;7.73;;;3.40;;
20468;SDS011;10393;52.460;13.322;2022-12-07T07:39:40;7.70;;;4.03;;
20468;SDS011;10393;52.460;13.322;2022-12-07T07:41:21;6.73;;;3.47;;
20468;SDS011;10393;52.460;13.322;2022-12-07T07:43:03;8.63;;;3.87;;
20468;SDS011;10393;52.460;13.322;2022-12-07T07:44:45;9.60;;;4.27;;
20468;SDS011;10393;52.460;13.322;2022-12-07T07:46:26;6.87;;;3.27;;
20468;SDS011;10393;52.460;13.322;2022-12-07T07:48:07;7.47;;;4.43;;
20468;SDS011;10393;52.460;13.322;2022-12-07T07:49:49;9.77;;;4.77;;
20468;SDS011;10393;52.460;13.322;2022-12-07T07:51:30;9.80;;;2.57;;
20468;SDS011;10393;52.460;13.322;2022-12-07T07:53:11;5.87;;;3.67;;
20468;SDS011;10393;52.460;13.322;2022-12-07T07:54:52;5.97;;;2.73;;
20468;SDS011;10393;52.460;13.322;2022-12-07T07:56:34;6.70;;;3.30;;
20468;SDS011;10393;52.460;13.322;2022-12-07T07:58:16;5.43;;;3.27;;
20468;SDS011;10393;52.460;13.322;2022-12-07T07:59:57;9.17;;;3.20;;
20468;SDS011;10393;52.460;13.322;2022-12-07T08:01:38;6.00;;;3.30;;
20468;SDS011;10393;52.460;13.322;2022-12-07T08:03:19;4.77;;;2.20;;
20468;SDS011;10393;52.460;13.322;2022-12-07T08:05:01;6.43;;;2.27;;
20468;SDS011;10393;52.460;13.322;2022-12-07T08:06:42;10.73;;;2.97;;
20468;SDS011;10393;52.460;13.322;2022-12-07T08:08:23;8.97;;;2.27;;
20468;SDS011;10393;52.460;13.322;2022-12-07T08:10:05;7.63;;;3.23;;
20468;SDS011;10393;52.460;13.322;2022-12-07T08:11:46;8.50;;;3.03;;
20468;SDS011;10393;52.460;13.322;2022-12-07T08:13:27;7.10;;;2.23;;
20468;SDS011;10393;52.460;13.322;2022-12-07T08:15:09;6.20;;;2.43;;
20468;SDS011;10393;52.460;13.322;2022-12-07T08:16:50;7.00;;;2.83;;
20468;SDS011;10393;52.460;13.322;2022-12-07T08:18:34;12.60;;;3.07;;
20468;SDS011;10393;52.460;13.322;2022-12-07T08:20:16;3.07;;;2.03;;
20468;SDS011;10393;52.460;13.322;2022-12-07T08:21:57;4.10;;;1.83;;
20468;SDS011;10393;52.460;13.322;2022-12-07T08:23:39;22.70;;;9.37;;
20468;SDS011;10393;52.460;13.322;2022-12-07T08:25:20;31.87;;;13.13;;
20468;SDS011;10393;52.460;13.322;2022-12-07T08:27:04;2.00;;;1.80;;
20468;SDS011;10393;52.460;13.322;2022-12-07T08:28:46;5.90;;;1.33;;
20468;SDS011;10393;52.460;13.322;2022-12-07T08:30:28;2.40;;;1.20;;
20468;SDS011;10393;52.460;13.322;2022-12-07T08:32:09;5.67;;;1.90;;
20468;SDS011;10393;52.460;13.322;2022-12-07T08:33:51;2.30;;;0.83;;
20468;SDS011;10393;52.460;13.322;2022-12-07T08:35:33;0.63;;;0.50;;
20468;SDS011;10393;52.460;13.322;2022-12-07T08:37:14;0.80;;;0.60;;
20468;SDS011;10393;52.460;13.322;2022-12-07T08:38:55;4.80;;;0.43;;
20468;SDS011;10393;52.460;13.322;2022-12-07T08:40:37;0.47;;;0.33;;
20468;SDS011;10393;52.460;13.322;2022-12-07T08:42:18;0.67;;;0.43;;
20468;SDS011;10393;52.460;13.322;2022-12-07T08:43:59;0.80;;;0.60;;
20468;SDS011;10393;52.460;13.322;2022-12-07T08:45:40;1.23;;;1.00;;
20468;SDS011;10393;52.460;13.322;2022-12-07T08:47:21;4.40;;;0.97;;
20468;SDS011;10393;52.460;13.322;2022-12-07T08:49:13;1.73;;;1.10;;
20468;SDS011;10393;52.460;13.322;2022-12-07T08:50:55;0.73;;;0.53;;
20468;SDS011;10393;52.460;13.322;2022-12-07T08:52:36;0.50;;;0.43;;
20468;SDS011;10393;52.460;13.322;2022-12-07T08:54:17;1.53;;;1.00;;
20468;SDS011;10393;52.460;13.322;2022-12-07T08:55:59;1.67;;;0.50;;
20468;SDS011;10393;52.460;13.322;2022-12-07T08:57:41;1.93;;;1.17;;
20468;SDS011;10393;52.460;13.322;2022-12-07T08:59:22;1.53;;;0.73;;
20468;SDS011;10393;52.460;13.322;2022-12-07T09:01:04;0.97;;;0.83;;
20468;SDS011;10393;52.460;13.322;2022-12-07T09:02:45;4.47;;;0.90;;
20468;SDS011;10393;52.460;13.322;2022-12-07T09:04:27;1.80;;;0.50;;
20468;SDS011;10393;52.460;13.322;2022-12-07T09:06:08;3.90;;;0.53;;
20468;SDS011;10393;52.460;13.322;2022-12-07T09:07:50;3.30;;;0.70;;
20468;SDS011;10393;52.460;13.322;2022-12-07T09:09:32;1.43;;;0.63;;
20468;SDS011;10393;52.460;13.322;2022-12-07T09:11:15;1.40;;;0.47;;
20468;SDS011;10393;52.460;13.322;2022-12-07T09:12:56;0.53;;;0.50;;
20468;SDS011;10393;52.460;13.322;2022-12-07T09:14:40;0.40;;;0.40;;
20468;SDS011;10393;52.460;13.322;2022-12-07T09:16:21;0.23;;;0.20;;
20468;SDS011;10393;52.460;13.322;2022-12-07T09:18:03;1.23;;;0.70;;
20468;SDS011;10393;52.460;13.322;2022-12-07T09:19:44;1.90;;;0.50;;
20468;SDS011;10393;52.460;13.322;2022-12-07T09:21:25;1.17;;;0.47;;
20468;SDS011;10393;52.460;13.322;2022-12-07T09:23:06;0.17;;;0.17;;
20468;SDS011;10393;52.460;13.322;2022-12-07T09:24:48;0.60;;;0.40;;
20468;SDS011;10393;52.460;13.322;2022-12-07T09:26:29;0.90;;;0.20;;
20468;SDS011;10393;52.460;13.322;2022-12-07T09:28:10;0.30;;;0.30;;
20468;SDS011;10393;52.460;13.322;2022-12-07T09:29:51;4.13;;;0.50;;
20468;SDS011;10393;52.460;13.322;2022-12-07T09:31:35;0.40;;;0.20;;
20468;SDS011;10393;52.460;13.322;2022-12-07T09:33:16;0.23;;;0.23;;
20468;SDS011;10393;52.460;13.322;2022-12-07T09:34:57;0.97;;;0.87;;
20468;SDS011;10393;52.460;13.322;2022-12-07T09:36:38;0.23;;;0.20;;
20468;SDS011;10393;52.460;13.322;2022-12-07T09:38:20;0.10;;;0.10;;
20468;SDS011;10393;52.460;13.322;2022-12-07T09:40:01;0.17;;;0.17;;
20468;SDS011;10393;52.460;13.322;2022-12-07T09:41:43;0.40;;;0.40;;
20468;SDS011;10393;52.460;13.322;2022-12-07T09:43:26;0.30;;;0.20;;
20468;SDS011;10393;52.460;13.322;2022-12-07T09:45:10;0.60;;;0.60;;
20468;SDS011;10393;52.460;13.322;2022-12-07T09:46:52;0.43;;;0.37;;
20468;SDS011;10393;52.460;13.322;2022-12-07T09:48:35;0.70;;;0.47;;
20468;SDS011;10393;52.460;13.322;2022-12-07T09:50:18;0.40;;;0.30;;
20468;SDS011;10393;52.460;13.322;2022-12-07T09:53:50;0.93;;;0.50;;
20468;SDS011;10393;52.460;13.322;2022-12-07T09:55:33;0.20;;;0.20;;
20468;SDS011;10393;52.460;13.322;2022-12-07T09:57:14;0.20;;;0.20;;
20468;SDS011;10393;52.460;13.322;2022-12-07T09:58:59;0.40;;;0.40;;
20468;SDS011;10393;52.460;13.322;2022-12-07T10:00:41;0.30;;;0.30;;
20468;SDS011;10393;52.460;13.322;2022-12-07T10:02:34;0.43;;;0.10;;
20468;SDS011;10393;52.460;13.322;2022-12-07T10:04:17;0.80;;;0.30;;
20468;SDS011;10393;52.460;13.322;2022-12-07T10:05:59;19.07;;;7.13;;
20468;SDS011;10393;52.460;13.322;2022-12-07T10:07:40;19.20;;;4.53;;
20468;SDS011;10393;52.460;13.322;2022-12-07T10:09:22;16.87;;;7.77;;
20468;SDS011;10393;52.460;13.322;2022-12-07T10:11:05;0.37;;;0.30;;
20468;SDS011;10393;52.460;13.322;2022-12-07T10:12:54;0.27;;;0.17;;
20468;SDS011;10393;52.460;13.322;2022-12-07T10:14:56;1.63;;;0.50;;
20468;SDS011;10393;52.460;13.322;2022-12-07T10:16:39;1.00;;;0.50;;
20468;SDS011;10393;52.460;13.322;2022-12-07T10:20:08;0.90;;;0.40;;
20468;SDS011;10393;52.460;13.322;2022-12-07T10:22:04;0.33;;;0.30;;
20468;SDS011;10393;52.460;13.322;2022-12-07T10:24:02;1.33;;;0.20;;
20468;SDS011;10393;52.460;13.322;2022-12-07T10:25:44;1.30;;;0.20;;
20468;SDS011;10393;52.460;13.322;2022-12-07T10:27:30;0.30;;;0.20;;
20468;SDS011;10393;52.460;13.322;2022-12-07T10:29:16;1.57;;;0.47;;
20468;SDS011;10393;52.460;13.322;2022-12-07T10:31:02;1.17;;;0.23;;
20468;SDS011;10393;52.460;13.322;2022-12-07T10:32:45;0.43;;;0.43;;
20468;SDS011;10393;52.460;13.322;2022-12-07T10:34:27;0.50;;;0.50;;